Time;durP1;ratioP1;P1;durP2;ratioP2;P2;SDS_P1;SDS_P2;PMS_P1;PMS_P2;Temp;Humidity;BMP_temperature;BMP_pressure;BME280_temperature;BME280_humidity;BME280_pressure;Samples;Min_cycle;Max_cycle;Signal;HPM_P1;HPM_P2
2022/10/20 00:00:47;;;;;;;11.80;5.63;;;8.20;99.90;;;;;;4960778;28;20150;-59
2022/10/20 00:03:13;;;;;;;16.23;6.05;;;8.30;99.90;;;;;;4954062;28;20091;-59
2022/10/20 00:05:39;;;;;;;12.85;6.20;;;8.20;99.90;;;;;;4945335;28;20043;-58
2022/10/20 00:08:05;;;;;;;13.02;5.80;;;8.20;99.90;;;;;;4949833;28;20098;-59
2022/10/20 00:10:31;;;;;;;9.75;5.90;;;8.20;99.90;;;;;;4955328;28;20050;-59
2022/10/20 00:12:56;;;;;;;11.90;6.10;;;8.10;99.90;;;;;;4941291;28;20043;-59
2022/10/20 00:15:22;;;;;;;12.40;6.13;;;8.10;99.90;;;;;;4942250;28;20038;-59
2022/10/20 00:17:48;;;;;;;14.15;6.30;;;8.00;99.90;;;;;;4951021;28;20074;-59
2022/10/20 00:20:14;;;;;;;11.00;5.95;;;8.00;99.90;;;;;;4954831;28;20564;-59
2022/10/20 00:22:39;;;;;;;12.75;6.20;;;8.00;99.90;;;;;;4952919;28;20039;-59
2022/10/20 00:25:06;;;;;;;8.90;5.90;;;8.00;99.90;;;;;;4949885;28;20058;-59
2022/10/20 00:27:32;;;;;;;12.05;6.65;;;7.90;99.90;;;;;;4953892;28;20819;-58
2022/10/20 00:29:58;;;;;;;10.65;6.35;;;7.90;99.90;;;;;;4953924;28;20177;-59
2022/10/20 00:32:24;;;;;;;12.00;6.50;;;7.90;99.90;;;;;;4952916;28;20194;-58
2022/10/20 00:34:50;;;;;;;11.68;6.53;;;7.90;99.90;;;;;;4954258;28;20043;-58
2022/10/20 00:37:15;;;;;;;15.75;6.60;;;7.80;99.90;;;;;;4955539;28;20071;-59
2022/10/20 00:39:41;;;;;;;10.88;6.50;;;7.80;99.90;;;;;;4949563;28;20051;-58
2022/10/20 00:42:14;;;;;;;15.02;6.53;;;7.80;99.90;;;;;;4956550;28;20047;-59
2022/10/20 00:44:56;;;;;;;11.93;7.28;;;7.70;99.90;;;;;;4956387;28;20077;-59
2022/10/20 00:47:42;;;;;;;12.30;6.10;;;7.70;99.90;;;;;;4959602;28;20804;-59
2022/10/20 00:50:12;;;;;;;12.30;6.40;;;7.70;99.90;;;;;;4953801;28;20043;-59
2022/10/20 00:52:40;;;;;;;11.70;6.47;;;7.60;99.90;;;;;;4957713;28;20050;-58
2022/10/20 00:55:11;;;;;;;11.50;5.93;;;7.60;99.90;;;;;;4955210;28;20114;-58
2022/10/20 00:57:38;;;;;;;18.35;6.60;;;7.60;99.90;;;;;;4951468;28;20055;-58
2022/10/20 01:00:05;;;;;;;14.00;6.30;;;7.50;99.90;;;;;;4963904;28;20940;-58
2022/10/20 01:02:31;;;;;;;11.45;5.88;;;7.50;99.90;;;;;;4955858;28;20063;-59
2022/10/20 01:04:58;;;;;;;11.20;6.28;;;7.50;99.90;;;;;;4957467;28;20039;-59
2022/10/20 01:07:23;;;;;;;12.52;6.80;;;7.50;99.90;;;;;;4948051;28;20051;-59
2022/10/20 01:09:49;;;;;;;13.43;6.43;;;7.50;99.90;;;;;;4955292;28;20053;-59
2022/10/20 01:12:38;;;;;;;11.70;6.82;;;7.50;99.90;;;;;;4955977;28;20153;-59
2022/10/20 01:15:16;;;;;;;18.40;6.40;;;7.50;99.90;;;;;;4955419;28;20565;-59
2022/10/20 01:18:08;;;;;;;11.55;7.03;;;7.50;99.90;;;;;;4958051;28;20047;-59
2022/10/20 01:21:02;;;;;;;10.90;6.00;;;7.50;99.90;;;;;;4958695;28;20635;-58
2022/10/20 01:23:50;;;;;;;12.10;6.10;;;7.40;99.90;;;;;;4960198;28;20351;-59
2022/10/20 01:26:21;;;;;;;9.48;5.97;;;7.40;99.90;;;;;;4966975;28;20406;-59
2022/10/20 01:28:56;;;;;;;12.05;6.57;;;7.40;99.90;;;;;;4965377;28;20047;-59
2022/10/20 01:31:44;;;;;;;12.63;5.85;;;7.40;99.90;;;;;;4957119;28;20129;-59
2022/10/20 01:34:23;;;;;;;13.55;6.78;;;7.30;99.90;;;;;;4956083;28;20449;-59
2022/10/20 01:36:57;;;;;;;10.93;6.03;;;7.30;99.90;;;;;;4958284;28;20051;-58
2022/10/20 01:39:45;;;;;;;10.85;6.03;;;7.30;99.90;;;;;;4958638;28;20058;-59
2022/10/20 01:42:16;;;;;;;12.27;6.57;;;7.30;99.90;;;;;;4957738;28;20043;-59
2022/10/20 01:44:44;;;;;;;12.52;6.13;;;7.30;99.90;;;;;;4956322;28;20122;-59
2022/10/20 01:47:12;;;;;;;13.35;5.75;;;7.20;99.90;;;;;;4958780;28;21066;-59
2022/10/20 01:49:42;;;;;;;9.77;5.93;;;7.20;99.90;;;;;;4956657;28;20050;-59
2022/10/20 01:52:10;;;;;;;8.95;5.65;;;7.20;99.90;;;;;;4955615;28;20046;-59
2022/10/20 01:54:36;;;;;;;9.55;6.15;;;7.20;99.90;;;;;;4956385;28;20061;-59
2022/10/20 01:57:17;;;;;;;15.32;6.00;;;7.20;99.90;;;;;;4963381;28;20038;-59
2022/10/20 02:00:07;;;;;;;12.35;6.15;;;7.20;99.90;;;;;;4954823;28;20049;-59
2022/10/20 02:03:09;;;;;;;11.07;6.10;;;7.20;99.90;;;;;;4966103;28;20066;-59
2022/10/20 02:05:56;;;;;;;13.45;6.43;;;7.20;99.90;;;;;;4956663;28;20054;-59
2022/10/20 02:08:28;;;;;;;11.82;6.30;;;7.20;99.90;;;;;;4956638;28;20407;-58
2022/10/20 02:10:58;;;;;;;13.75;5.72;;;7.20;99.90;;;;;;4955609;28;20047;-58
2022/10/20 02:13:26;;;;;;;11.82;6.20;;;7.20;99.90;;;;;;4956302;28;20046;-58
2022/10/20 02:15:55;;;;;;;9.68;6.22;;;7.10;99.90;;;;;;4958013;28;20054;-58
2022/10/20 02:18:26;;;;;;;10.30;5.85;;;7.20;99.90;;;;;;4955519;28;20043;-59
2022/10/20 02:20:54;;;;;;;15.23;6.00;;;7.10;99.90;;;;;;4956411;28;20047;-59
2022/10/20 02:23:20;;;;;;;11.75;6.43;;;7.10;99.90;;;;;;4947210;28;20078;-59
2022/10/20 02:25:50;;;;;;;10.63;6.40;;;7.10;99.90;;;;;;4957463;28;20146;-59
2022/10/20 02:28:16;;;;;;;9.85;6.05;;;7.10;99.90;;;;;;4956276;28;20445;-59
2022/10/20 02:30:44;;;;;;;13.85;6.20;;;7.10;99.90;;;;;;4954695;28;20514;-59
2022/10/20 02:33:11;;;;;;;12.52;6.10;;;7.10;99.90;;;;;;4953519;28;20449;-58
2022/10/20 02:35:37;;;;;;;14.15;6.63;;;7.10;99.90;;;;;;4955215;28;20058;-59
2022/10/20 02:38:03;;;;;;;13.18;6.57;;;7.10;99.90;;;;;;4954809;28;20392;-57
2022/10/20 02:40:29;;;;;;;11.15;6.50;;;7.10;99.90;;;;;;4955751;28;20062;-59
2022/10/20 02:42:54;;;;;;;12.60;6.70;;;7.10;99.90;;;;;;4955244;28;20442;-59
2022/10/20 02:45:20;;;;;;;11.05;6.47;;;7.10;99.90;;;;;;4960920;28;20122;-59
2022/10/20 02:47:46;;;;;;;12.82;6.32;;;7.10;99.90;;;;;;4952680;28;20050;-59
2022/10/20 02:50:12;;;;;;;10.60;6.00;;;7.10;99.90;;;;;;4950714;28;20510;-60
2022/10/20 02:52:39;;;;;;;8.55;5.40;;;7.10;99.90;;;;;;4954737;28;22175;-59
2022/10/20 02:55:05;;;;;;;8.48;6.20;;;7.00;99.90;;;;;;4956246;28;20493;-58
2022/10/20 02:57:31;;;;;;;10.93;6.40;;;7.00;99.90;;;;;;4954344;28;20047;-59
2022/10/20 02:59:56;;;;;;;15.35;6.53;;;7.00;99.90;;;;;;4944625;28;20057;-59
2022/10/20 03:02:22;;;;;;;14.63;6.80;;;7.10;99.90;;;;;;4954056;28;20082;-59
2022/10/20 03:04:48;;;;;;;9.00;6.70;;;7.00;99.90;;;;;;4954820;28;20158;-59
2022/10/20 03:07:15;;;;;;;14.02;6.50;;;7.00;99.90;;;;;;4954012;28;20589;-59
2022/10/20 03:09:40;;;;;;;11.40;6.68;;;7.00;99.90;;;;;;4953635;28;20039;-58
2022/10/20 03:12:06;;;;;;;12.38;6.80;;;7.00;99.90;;;;;;4953533;28;20862;-58
2022/10/20 03:14:32;;;;;;;11.52;6.72;;;7.00;99.90;;;;;;4961144;28;20051;-59
2022/10/20 03:16:58;;;;;;;9.82;6.60;;;7.00;99.90;;;;;;4960634;28;20154;-59
2022/10/20 03:19:24;;;;;;;9.52;6.60;;;7.00;99.90;;;;;;4961661;28;20054;-59
2022/10/20 03:21:49;;;;;;;9.75;6.78;;;7.00;99.90;;;;;;4960384;28;20089;-59
2022/10/20 03:24:15;;;;;;;14.65;7.13;;;7.10;99.90;;;;;;4953335;28;20054;-59
2022/10/20 03:26:41;;;;;;;11.82;7.78;;;7.00;99.90;;;;;;4957182;28;20035;-59
2022/10/20 03:29:07;;;;;;;14.20;7.28;;;7.00;99.90;;;;;;4955087;28;20044;-58
2022/10/20 03:31:32;;;;;;;11.70;7.57;;;7.00;99.90;;;;;;4954981;28;20146;-59
2022/10/20 03:33:58;;;;;;;11.85;7.75;;;7.00;99.90;;;;;;4953770;28;20051;-59
2022/10/20 03:36:24;;;;;;;12.68;7.43;;;7.00;99.90;;;;;;4950274;28;20399;-59
2022/10/20 03:38:50;;;;;;;12.35;7.75;;;7.00;99.90;;;;;;4955147;28;20046;-59
2022/10/20 03:41:15;;;;;;;10.57;6.97;;;7.00;99.90;;;;;;4961027;28;20069;-58
2022/10/20 03:43:41;;;;;;;13.55;8.15;;;7.00;99.90;;;;;;4954600;28;20047;-59
2022/10/20 03:46:10;;;;;;;13.02;7.85;;;6.90;99.90;;;;;;4953172;28;20059;-59
2022/10/20 03:48:37;;;;;;;12.35;7.47;;;6.90;99.90;;;;;;4960534;28;20045;-59
2022/10/20 03:51:04;;;;;;;12.32;8.43;;;6.90;99.90;;;;;;4954621;28;20101;-58
2022/10/20 03:53:31;;;;;;;18.10;8.32;;;6.90;99.90;;;;;;4956839;28;20055;-59
2022/10/20 03:55:56;;;;;;;14.50;8.70;;;6.90;99.90;;;;;;4954968;28;20046;-59
2022/10/20 03:58:22;;;;;;;14.07;8.23;;;6.90;99.90;;;;;;4953750;28;20061;-59
2022/10/20 04:00:48;;;;;;;12.65;8.35;;;6.90;99.90;;;;;;4953270;28;20453;-58
2022/10/20 04:03:14;;;;;;;14.55;8.60;;;6.90;99.90;;;;;;4954402;28;20062;-59
2022/10/20 04:05:40;;;;;;;13.20;8.55;;;6.90;99.90;;;;;;4954648;28;21071;-59
2022/10/20 04:08:06;;;;;;;15.60;8.63;;;6.90;99.90;;;;;;4959790;28;20066;-58
2022/10/20 04:10:32;;;;;;;14.65;9.50;;;6.90;99.90;;;;;;4953728;28;20402;-59
2022/10/20 04:13:01;;;;;;;16.45;9.77;;;6.90;99.90;;;;;;4956917;28;20043;-58
2022/10/20 04:15:27;;;;;;;14.18;9.20;;;6.90;99.90;;;;;;4954213;28;20046;-59
2022/10/20 04:17:53;;;;;;;12.45;9.15;;;6.80;99.90;;;;;;4952787;28;20047;-59
2022/10/20 04:20:19;;;;;;;14.60;9.35;;;6.80;99.90;;;;;;4961208;28;20043;-59
2022/10/20 04:22:45;;;;;;;14.35;8.98;;;6.80;99.90;;;;;;4953789;28;20047;-58
2022/10/20 04:25:11;;;;;;;21.83;9.75;;;6.80;99.90;;;;;;4955330;28;20047;-59
2022/10/20 04:27:40;;;;;;;19.92;9.82;;;6.80;99.90;;;;;;4952604;28;20050;-58
2022/10/20 04:30:07;;;;;;;14.70;9.52;;;6.80;99.90;;;;;;4954916;28;20597;-59
2022/10/20 04:32:32;;;;;;;18.80;9.52;;;6.80;99.90;;;;;;4954008;28;20075;-59
2022/10/20 04:34:58;;;;;;;18.08;10.02;;;6.80;99.90;;;;;;4956559;28;20147;-59
2022/10/20 04:37:24;;;;;;;17.38;10.27;;;6.80;99.90;;;;;;4950235;28;20051;-59
2022/10/20 04:39:50;;;;;;;14.10;9.77;;;6.80;99.90;;;;;;4952509;28;20506;-59
2022/10/20 04:42:19;;;;;;;19.88;10.20;;;6.80;99.90;;;;;;4953263;28;20118;-59
2022/10/20 04:44:45;;;;;;;15.13;10.05;;;6.80;99.90;;;;;;4953464;28;20058;-58
2022/10/20 04:47:11;;;;;;;18.02;10.30;;;6.80;99.90;;;;;;4953342;28;20393;-59
2022/10/20 04:49:37;;;;;;;13.80;10.50;;;6.80;99.90;;;;;;4953244;28;20054;-59
2022/10/20 04:52:03;;;;;;;13.80;9.88;;;6.80;99.90;;;;;;4954716;28;20046;-58
2022/10/20 04:54:29;;;;;;;16.17;10.45;;;6.80;99.90;;;;;;4953709;28;20165;-59
2022/10/20 04:56:55;;;;;;;18.33;11.10;;;6.80;99.90;;;;;;4954453;28;20166;-58
2022/10/20 04:59:21;;;;;;;15.15;10.10;;;6.80;99.90;;;;;;4953794;28;20047;-59
2022/10/20 05:01:47;;;;;;;15.40;10.50;;;6.80;99.90;;;;;;4953776;28;21229;-56
2022/10/20 05:04:19;;;;;;;15.88;11.15;;;6.80;99.90;;;;;;4954551;28;20540;-59
2022/10/20 05:06:46;;;;;;;17.63;11.23;;;6.80;99.90;;;;;;4959960;28;20043;-58
2022/10/20 05:09:13;;;;;;;15.57;11.23;;;6.80;99.90;;;;;;4951795;28;20067;-57
2022/10/20 05:11:39;;;;;;;18.45;11.18;;;6.80;99.90;;;;;;4950801;28;20050;-59
2022/10/20 05:14:04;;;;;;;16.33;11.02;;;6.80;99.90;;;;;;4952387;28;20383;-59
2022/10/20 05:16:30;;;;;;;16.40;11.60;;;6.80;99.90;;;;;;4951134;28;20101;-59
2022/10/20 05:18:57;;;;;;;15.30;11.40;;;6.80;99.90;;;;;;4950966;28;20053;-59
2022/10/20 05:21:28;;;;;;;17.00;11.73;;;6.70;99.90;;;;;;4953065;28;20046;-57
2022/10/20 05:23:59;;;;;;;13.75;11.18;;;6.80;99.90;;;;;;4956400;28;20061;-59
2022/10/20 05:26:27;;;;;;;20.73;12.13;;;6.70;99.90;;;;;;4958346;28;20046;-58
2022/10/20 05:28:53;;;;;;;19.52;12.43;;;6.70;99.90;;;;;;4955879;28;20736;-59
2022/10/20 05:31:20;;;;;;;16.25;12.00;;;6.70;99.90;;;;;;4957539;28;20079;-58
2022/10/20 05:33:52;;;;;;;25.63;11.20;;;6.70;99.90;;;;;;4956452;28;20046;-59
2022/10/20 05:36:20;;;;;;;17.40;12.05;;;6.70;99.90;;;;;;4955948;28;20125;-59
2022/10/20 05:38:46;;;;;;;21.15;12.77;;;6.70;99.90;;;;;;4955853;28;20614;-56
2022/10/20 05:41:15;;;;;;;20.73;12.50;;;6.70;99.90;;;;;;4957646;28;20039;-59
2022/10/20 05:43:41;;;;;;;20.02;12.13;;;6.70;99.90;;;;;;4955457;28;20047;-59
2022/10/20 05:46:07;;;;;;;19.50;12.27;;;6.70;99.90;;;;;;4956387;28;20054;-59
2022/10/20 05:48:34;;;;;;;20.65;12.85;;;6.70;99.90;;;;;;4955227;28;20074;-58
2022/10/20 05:51:14;;;;;;;15.85;11.68;;;6.60;99.90;;;;;;4953172;28;20138;-57
2022/10/20 05:53:40;;;;;;;19.55;12.63;;;6.70;99.90;;;;;;4955559;28;20560;-59
2022/10/20 05:56:08;;;;;;;23.20;12.55;;;6.60;99.90;;;;;;4955094;28;20134;-59
2022/10/20 05:58:34;;;;;;;17.75;12.27;;;6.60;99.90;;;;;;4953470;28;20054;-59
2022/10/20 06:01:22;;;;;;;16.90;12.27;;;6.60;99.90;;;;;;4957001;28;20863;-59
2022/10/20 06:03:59;;;;;;;17.23;12.60;;;6.60;99.90;;;;;;4954764;28;20054;-59
2022/10/20 06:06:29;;;;;;;19.42;12.77;;;6.60;99.90;;;;;;4954750;28;20047;-58
2022/10/20 06:08:56;;;;;;;17.52;12.68;;;6.60;99.90;;;;;;4954439;28;20404;-58
2022/10/20 06:11:23;;;;;;;17.55;12.55;;;6.60;99.90;;;;;;4956625;28;20056;-59
2022/10/20 06:13:48;;;;;;;22.98;13.48;;;6.60;99.90;;;;;;4954023;28;20505;-59
2022/10/20 06:16:19;;;;;;;18.42;12.48;;;6.60;99.90;;;;;;4954283;28;20043;-59
2022/10/20 06:18:45;;;;;;;20.25;12.35;;;6.60;99.90;;;;;;4956890;28;20139;-59
2022/10/20 06:21:15;;;;;;;21.38;13.10;;;6.60;99.90;;;;;;4954845;28;20864;-59
2022/10/20 06:23:41;;;;;;;17.60;13.30;;;6.60;99.90;;;;;;4955356;28;20047;-59
2022/10/20 06:26:35;;;;;;;23.05;14.07;;;6.60;99.90;;;;;;4956337;28;20133;-59
2022/10/20 06:29:03;;;;;;;17.73;12.73;;;6.70;99.90;;;;;;4954834;28;20045;-58
2022/10/20 06:31:31;;;;;;;17.17;12.85;;;6.70;99.90;;;;;;4957654;28;20537;-58
2022/10/20 06:33:58;;;;;;;21.98;13.52;;;6.60;99.90;;;;;;4955014;28;20051;-58
2022/10/20 06:36:25;;;;;;;17.83;12.93;;;6.60;99.90;;;;;;4955817;28;20051;-58
2022/10/20 06:38:57;;;;;;;21.02;13.45;;;6.70;99.90;;;;;;4954483;28;20050;-58
2022/10/20 06:41:25;;;;;;;24.13;13.15;;;6.70;99.90;;;;;;4954208;28;20047;-58
2022/10/20 06:43:59;;;;;;;18.52;13.18;;;6.70;99.90;;;;;;4953899;28;20161;-58
2022/10/20 06:46:27;;;;;;;19.10;13.02;;;6.70;99.90;;;;;;4955822;28;20053;-59
2022/10/20 06:48:53;;;;;;;20.15;13.63;;;6.70;99.90;;;;;;4962388;28;20057;-58
2022/10/20 06:51:22;;;;;;;18.65;12.75;;;6.80;99.90;;;;;;4954377;28;20046;-58
2022/10/20 06:53:49;;;;;;;19.52;13.57;;;6.80;99.90;;;;;;4955978;28;20521;-58
2022/10/20 06:56:18;;;;;;;18.88;13.30;;;6.80;99.90;;;;;;4955393;28;20314;-59
2022/10/20 06:58:45;;;;;;;18.25;13.40;;;6.80;99.90;;;;;;4954925;28;20062;-59
2022/10/20 07:01:15;;;;;;;16.58;13.07;;;6.80;99.90;;;;;;4954352;28;20891;-59
2022/10/20 07:03:43;;;;;;;18.05;13.20;;;6.80;99.90;;;;;;4953918;28;20063;-59
2022/10/20 07:06:16;;;;;;;21.45;13.25;;;6.90;99.90;;;;;;4955622;28;20043;-58
2022/10/20 07:08:42;;;;;;;16.90;12.88;;;7.00;99.90;;;;;;4953931;28;20109;-59
2022/10/20 07:11:14;;;;;;;19.65;13.75;;;6.90;99.90;;;;;;4951654;28;20086;-59
2022/10/20 07:13:40;;;;;;;18.63;13.13;;;7.00;99.90;;;;;;4954224;28;20074;-59
2022/10/20 07:16:09;;;;;;;19.55;14.38;;;7.00;99.90;;;;;;4949817;28;20050;-59
2022/10/20 07:18:36;;;;;;;17.80;12.70;;;7.10;99.90;;;;;;4956831;28;20213;-59
2022/10/20 07:21:05;;;;;;;16.85;13.00;;;7.10;99.90;;;;;;4949150;28;20130;-59
2022/10/20 07:23:32;;;;;;;18.60;12.77;;;7.10;99.90;;;;;;4953021;28;20557;-58
2022/10/20 07:26:22;;;;;;;15.00;12.57;;;7.10;99.90;;;;;;4950512;28;20134;-59
2022/10/20 07:28:50;;;;;;;18.60;12.98;;;7.20;99.90;;;;;;4953567;28;20050;-58
2022/10/20 07:31:17;;;;;;;24.95;13.00;;;7.20;99.90;;;;;;4954969;28;20642;-59
2022/10/20 07:33:43;;;;;;;18.00;13.43;;;7.20;99.90;;;;;;4954182;28;20067;-59
2022/10/20 07:36:18;;;;;;;20.15;13.65;;;7.30;99.90;;;;;;4951372;28;20043;-59
2022/10/20 07:38:45;;;;;;;15.73;12.55;;;7.30;99.90;;;;;;4952893;28;20047;-60
2022/10/20 07:41:11;;;;;;;20.92;12.90;;;7.30;99.90;;;;;;4944258;28;20047;-59
2022/10/20 07:43:38;;;;;;;19.42;13.07;;;7.30;99.90;;;;;;4953597;28;20079;-58
2022/10/20 07:46:04;;;;;;;17.08;13.10;;;7.30;99.90;;;;;;4953789;28;20130;-59
2022/10/20 07:48:32;;;;;;;19.33;13.13;;;7.40;99.90;;;;;;4953264;28;20475;-59
2022/10/20 07:51:23;;;;;;;19.33;12.85;;;7.40;99.90;;;;;;4953681;28;20391;-59
2022/10/20 07:53:51;;;;;;;20.83;13.50;;;7.40;99.90;;;;;;4952541;28;20055;-59
2022/10/20 07:56:17;;;;;;;23.67;12.55;;;7.50;99.90;;;;;;4952685;28;20493;-59
2022/10/20 07:58:43;;;;;;;20.13;13.48;;;7.50;99.90;;;;;;4960117;28;20046;-58
2022/10/20 08:01:09;;;;;;;18.30;12.82;;;7.50;99.90;;;;;;4952833;28;20054;-59
2022/10/20 08:03:36;;;;;;;22.23;13.48;;;7.50;99.90;;;;;;4948073;28;20616;-58
2022/10/20 08:06:02;;;;;;;20.92;12.27;;;7.60;99.90;;;;;;4950014;28;20081;-59
2022/10/20 08:08:28;;;;;;;17.23;12.50;;;7.60;99.90;;;;;;4951397;28;20629;-59
2022/10/20 08:10:55;;;;;;;17.13;11.55;;;7.60;99.90;;;;;;4952551;28;21190;-59
2022/10/20 08:13:21;;;;;;;23.65;12.38;;;7.70;99.90;;;;;;4951265;28;20474;-59
2022/10/20 08:15:46;;;;;;;19.65;12.35;;;7.70;99.90;;;;;;4953884;28;20054;-59
2022/10/20 08:18:13;;;;;;;19.20;12.23;;;7.70;99.90;;;;;;4953903;28;20053;-59
2022/10/20 08:20:39;;;;;;;18.40;12.77;;;7.80;99.90;;;;;;4953170;28;20208;-59
2022/10/20 08:23:05;;;;;;;19.85;12.43;;;7.70;99.90;;;;;;4948886;28;20055;-59
2022/10/20 08:25:30;;;;;;;15.63;11.90;;;7.90;99.90;;;;;;4951035;28;20045;-59
2022/10/20 08:27:56;;;;;;;18.55;12.27;;;7.90;99.90;;;;;;4953582;28;20039;-59
2022/10/20 08:30:22;;;;;;;16.50;12.52;;;8.00;99.90;;;;;;4949694;28;20569;-58
2022/10/20 08:32:51;;;;;;;25.92;12.98;;;8.00;99.90;;;;;;4952952;28;20066;-59
2022/10/20 08:35:18;;;;;;;17.13;11.70;;;8.20;99.90;;;;;;4951868;28;20051;-59
2022/10/20 08:37:43;;;;;;;16.90;11.45;;;8.20;99.90;;;;;;4951915;28;20050;-59
2022/10/20 08:40:15;;;;;;;21.52;12.40;;;8.20;99.90;;;;;;4951348;28;20043;-59
2022/10/20 08:42:45;;;;;;;18.83;11.50;;;8.30;99.90;;;;;;4951432;28;20536;-59
2022/10/20 08:45:20;;;;;;;17.40;11.20;;;8.40;99.90;;;;;;4953093;28;20101;-58
2022/10/20 08:47:48;;;;;;;18.60;11.90;;;8.40;99.90;;;;;;4953009;28;20126;-59
2022/10/20 08:50:16;;;;;;;16.17;11.50;;;8.50;99.90;;;;;;4954344;28;20164;-59
2022/10/20 08:52:44;;;;;;;14.65;11.40;;;8.60;99.90;;;;;;4950484;28;20154;-59
2022/10/20 08:55:26;;;;;;;17.58;11.65;;;8.60;99.90;;;;;;4953335;28;20051;-59
2022/10/20 08:58:04;;;;;;;14.35;11.18;;;8.70;99.90;;;;;;4955263;28;20117;-59
2022/10/20 09:00:31;;;;;;;13.77;10.65;;;8.70;99.90;;;;;;4956189;28;20511;-59
2022/10/20 09:03:10;;;;;;;17.30;11.50;;;8.80;99.90;;;;;;4956568;28;20066;-59
2022/10/20 09:05:40;;;;;;;15.05;11.02;;;8.90;99.90;;;;;;4955876;28;20106;-60
2022/10/20 09:08:06;;;;;;;16.77;10.65;;;8.90;99.90;;;;;;4956515;28;20121;-59
2022/10/20 09:10:36;;;;;;;14.73;10.38;;;9.00;99.90;;;;;;4956502;28;20122;-58
2022/10/20 09:13:35;;;;;;;16.85;10.05;;;9.10;99.90;;;;;;4971574;28;20074;-58
2022/10/20 09:16:11;;;;;;;16.38;11.20;;;9.30;99.90;;;;;;4955523;28;20043;-59
2022/10/20 09:18:38;;;;;;;12.02;10.15;;;9.40;99.90;;;;;;4956399;28;20065;-59
2022/10/20 09:21:06;;;;;;;15.27;10.02;;;9.50;99.90;;;;;;4957088;28;20113;-59
2022/10/20 09:23:39;;;;;;;14.60;10.10;;;9.60;99.90;;;;;;4957748;28;20050;-59
2022/10/20 09:26:33;;;;;;;16.20;10.55;;;9.70;99.90;;;;;;4957136;28;20601;-59
2022/10/20 09:29:07;;;;;;;12.93;9.93;;;9.80;99.90;;;;;;4948893;28;20058;-59
2022/10/20 09:31:35;;;;;;;15.88;10.25;;;9.90;99.90;;;;;;4956016;28;20074;-59
2022/10/20 09:34:18;;;;;;;13.80;9.77;;;10.00;99.90;;;;;;4955151;28;20050;-59
2022/10/20 09:36:44;;;;;;;14.38;9.82;;;10.00;99.90;;;;;;4952177;28;20090;-59
2022/10/20 09:39:28;;;;;;;15.32;9.98;;;10.10;99.90;;;;;;4956486;28;20130;-59
2022/10/20 09:42:26;;;;;;;17.70;9.10;;;10.10;99.90;;;;;;4957022;28;20065;-58
2022/10/20 09:44:56;;;;;;;16.75;9.68;;;10.20;99.90;;;;;;4957266;28;20054;-59
2022/10/20 09:47:25;;;;;;;12.50;9.18;;;10.20;99.90;;;;;;4955148;28;20608;-59
2022/10/20 09:49:57;;;;;;;15.50;8.80;;;10.30;99.90;;;;;;4956651;28;20051;-58
2022/10/20 09:52:32;;;;;;;13.43;9.20;;;10.30;99.90;;;;;;4954713;28;20054;-59
2022/10/20 09:55:02;;;;;;;13.00;8.63;;;10.30;99.90;;;;;;4956199;28;20379;-59
2022/10/20 09:57:29;;;;;;;15.77;9.30;;;10.40;99.90;;;;;;4955456;28;20059;-58
2022/10/20 09:59:56;;;;;;;14.13;8.32;;;10.40;99.90;;;;;;4962700;28;20784;-59
2022/10/20 10:02:22;;;;;;;12.02;8.88;;;10.40;99.90;;;;;;4955521;28;20458;-58
2022/10/20 10:04:52;;;;;;;13.82;8.50;;;10.50;99.90;;;;;;4962540;28;20051;-59
2022/10/20 10:07:21;;;;;;;15.45;8.80;;;10.50;99.90;;;;;;4955859;28;20525;-60
2022/10/20 10:10:20;;;;;;;12.35;8.20;;;10.60;99.90;;;;;;4953989;28;20126;-57
2022/10/20 10:12:55;;;;;;;9.55;8.25;;;10.60;99.90;;;;;;4955193;28;20053;-59
2022/10/20 10:15:33;;;;;;;16.17;8.88;;;10.70;99.90;;;;;;4955368;28;20049;-59
2022/10/20 10:18:10;;;;;;;15.45;8.23;;;10.80;99.90;;;;;;4961653;28;20046;-60
2022/10/20 10:20:38;;;;;;;13.48;8.63;;;10.90;99.90;;;;;;4955632;28;20406;-59
2022/10/20 10:23:20;;;;;;;12.68;7.88;;;10.90;99.90;;;;;;4956633;28;20416;-59
2022/10/20 10:25:47;;;;;;;11.65;8.30;;;11.00;99.90;;;;;;4954348;28;20047;-59
2022/10/20 10:28:22;;;;;;;9.63;7.97;;;11.10;99.90;;;;;;4954577;28;20047;-60
2022/10/20 10:30:47;;;;;;;11.93;8.23;;;11.20;99.90;;;;;;4961031;28;20921;-59
2022/10/20 10:33:25;;;;;;;14.65;7.65;;;11.30;99.90;;;;;;4956177;28;20053;-60
2022/10/20 10:35:51;;;;;;;12.60;7.20;;;11.40;99.90;;;;;;4954393;28;20153;-59
2022/10/20 10:38:18;;;;;;;12.70;7.65;;;11.40;99.90;;;;;;4951066;28;20051;-59
2022/10/20 10:41:11;;;;;;;12.30;7.32;;;11.60;99.90;;;;;;4951702;28;20050;-59
2022/10/20 10:43:48;;;;;;;15.82;7.97;;;11.70;99.90;;;;;;4954751;28;20564;-59
2022/10/20 10:46:26;;;;;;;11.25;7.93;;;11.90;99.90;;;;;;4954201;28;20086;-59
2022/10/20 10:49:16;;;;;;;9.88;7.45;;;12.00;99.90;;;;;;4955579;28;20046;-59
2022/10/20 10:51:53;;;;;;;15.43;7.63;;;12.10;99.90;;;;;;4954497;28;20498;-59
2022/10/20 10:54:37;;;;;;;10.10;7.50;;;12.30;99.90;;;;;;4954308;28;20138;-59
2022/10/20 10:57:15;;;;;;;9.95;7.40;;;12.50;99.90;;;;;;4954598;28;20047;-59
2022/10/20 10:59:42;;;;;;;16.27;8.30;;;12.60;99.90;;;;;;4954639;28;20539;-60
2022/10/20 11:02:14;;;;;;;13.07;7.40;;;12.60;99.90;;;;;;4952703;28;20042;-59
2022/10/20 11:05:14;;;;;;;10.37;6.87;;;12.60;99.90;;;;;;4953114;28;20055;-59
2022/10/20 11:07:58;;;;;;;10.25;7.30;;;12.70;99.90;;;;;;4953103;28;20305;-59
2022/10/20 11:10:45;;;;;;;12.63;7.30;;;12.60;99.90;;;;;;4953058;28;20379;-59
2022/10/20 11:13:19;;;;;;;13.55;7.40;;;12.60;99.90;;;;;;4953240;28;20047;-58
2022/10/20 11:15:53;;;;;;;11.93;7.28;;;12.70;99.90;;;;;;4955332;28;20974;-59
2022/10/20 11:18:41;;;;;;;13.30;7.40;;;12.80;99.90;;;;;;4953023;28;20047;-59
2022/10/20 11:21:35;;;;;;;11.13;7.68;;;12.90;99.90;;;;;;4953792;28;20154;-59
2022/10/20 11:24:28;;;;;;;11.93;7.57;;;12.90;99.90;;;;;;4953271;28;20428;-59
2022/10/20 11:27:09;;;;;;;9.73;7.22;;;13.00;99.90;;;;;;4953441;28;20046;-59
2022/10/20 11:29:40;;;;;;;10.05;6.95;;;13.00;99.90;;;;;;4949347;28;20481;-59
2022/10/20 11:32:18;;;;;;;9.55;7.25;;;13.10;99.90;;;;;;4954377;28;20054;-59
2022/10/20 11:35:14;;;;;;;11.07;7.15;;;13.20;99.90;;;;;;4951759;28;20055;-60
2022/10/20 11:38:10;;;;;;;12.55;7.45;;;13.20;99.90;;;;;;4952837;28;20137;-60
2022/10/20 11:40:39;;;;;;;9.75;7.50;;;13.20;99.90;;;;;;4961087;28;20968;-60
2022/10/20 11:43:25;;;;;;;13.07;7.50;;;13.20;99.90;;;;;;4951961;28;20043;-60
2022/10/20 11:46:04;;;;;;;9.85;7.22;;;13.20;99.90;;;;;;4954124;28;20070;-59
2022/10/20 11:48:35;;;;;;;12.80;7.40;;;13.10;99.90;;;;;;4954267;28;20160;-59
2022/10/20 11:51:24;;;;;;;12.27;7.70;;;13.10;99.90;;;;;;4951971;28;20050;-59
2022/10/20 11:54:28;;;;;;;11.48;7.43;;;13.10;99.90;;;;;;4954408;28;20072;-60
2022/10/20 11:57:13;;;;;;;9.85;7.55;;;13.10;99.90;;;;;;4940568;28;20498;-60
2022/10/20 12:00:05;;;;;;;13.20;7.60;;;13.20;99.90;;;;;;4954857;28;20154;-59
2022/10/20 12:02:59;;;;;;;9.15;7.55;;;13.20;99.90;;;;;;4952511;28;21026;-60
2022/10/20 12:05:27;;;;;;;;;;;13.20;99.90;;;;;;4953022;28;20047;-60
2022/10/20 12:08:31;;;;;;;10.60;7.47;;;13.20;99.90;;;;;;4953263;28;19922;-60
2022/10/20 12:10:59;;;;;;;;;;;13.20;99.90;;;;;;4953407;28;20530;-59
2022/10/20 12:13:42;;;;;;;10.13;7.97;;;13.20;99.90;;;;;;4953371;28;19926;-59
2022/10/20 12:16:08;;;;;;;;;;;13.20;99.90;;;;;;4954020;28;20500;-59
2022/10/20 12:18:35;;;;;;;12.23;7.45;;;13.20;99.90;;;;;;4954510;28;19922;-59
2022/10/20 12:21:06;;;;;;;13.90;7.97;;;13.20;99.90;;;;;;4952956;28;20059;-59
2022/10/20 12:23:44;;;;;;;11.68;7.95;;;13.10;99.90;;;;;;4951781;28;20482;-59
2022/10/20 12:26:29;;;;;;;16.52;8.40;;;13.10;99.90;;;;;;4959966;28;20433;-59
2022/10/20 12:28:59;;;;;;;12.35;7.40;;;13.10;99.90;;;;;;4936057;28;20042;-59
2022/10/20 12:32:03;;;;;;;10.05;7.63;;;13.10;99.90;;;;;;4955182;28;20491;-59
2022/10/20 12:34:39;;;;;;;14.40;7.82;;;13.00;99.90;;;;;;4955511;28;20047;-59
2022/10/20 12:37:19;;;;;;;9.93;8.40;;;13.00;99.90;;;;;;4956223;28;20494;-59
2022/10/20 12:39:46;;;;;;;13.63;8.10;;;13.00;99.90;;;;;;4957285;28;20383;-59
2022/10/20 12:42:28;;;;;;;11.18;7.78;;;13.00;99.90;;;;;;4956325;28;20054;-59
2022/10/20 12:44:54;;;;;;;12.63;7.97;;;13.00;99.90;;;;;;4956738;28;20106;-59
2022/10/20 12:47:24;;;;;;;10.32;7.93;;;13.00;99.90;;;;;;4956078;28;20091;-59
2022/10/20 12:50:19;;;;;;;10.50;7.80;;;12.90;99.90;;;;;;4955189;28;20157;-60
2022/10/20 12:52:45;;;;;;;14.13;8.32;;;12.90;99.90;;;;;;4948540;28;20043;-60
2022/10/20 12:55:22;;;;;;;17.90;8.20;;;12.90;99.90;;;;;;4958609;28;20842;-60
2022/10/20 12:58:08;;;;;;;16.55;9.00;;;12.80;99.90;;;;;;4958513;28;20075;-60
2022/10/20 13:00:33;;;;;;;11.95;8.38;;;12.80;99.90;;;;;;4956561;28;20050;-60
2022/10/20 13:02:59;;;;;;;12.60;8.65;;;12.80;99.90;;;;;;4954689;28;20505;-60
2022/10/20 13:05:39;;;;;;;11.60;8.85;;;12.70;99.90;;;;;;4956191;28;20223;-59